createdAt,value
2023-05-23T00:00:33.489Z,16.50
2023-05-23T00:02:35.241Z,16.50
2023-05-23T00:04:39.137Z,16.40
2023-05-23T00:06:46.917Z,16.50
2023-05-23T00:08:49.197Z,16.40
2023-05-23T00:10:51.011Z,16.60
2023-05-23T00:12:53.294Z,16.60
2023-05-23T00:14:54.913Z,16.40
2023-05-23T00:16:56.699Z,16.40
2023-05-23T00:18:59.270Z,16.50
2023-05-23T00:21:02.294Z,16.50
2023-05-23T00:23:04.546Z,16.40
2023-05-23T00:25:06.800Z,16.40
2023-05-23T00:27:08.407Z,16.40
2023-05-23T00:29:15.680Z,16.40
2023-05-23T00:31:17.812Z,16.40
2023-05-23T00:33:22.255Z,16.40
2023-05-23T00:35:24.318Z,16.40
2023-05-23T00:37:25.962Z,16.40
2023-05-23T00:39:27.812Z,16.50
2023-05-23T00:41:30.455Z,16.40
2023-05-23T00:43:32.408Z,16.40
2023-05-23T00:45:34.062Z,16.40
2023-05-23T00:47:35.753Z,16.40
2023-05-23T00:49:37.419Z,16.40
2023-05-23T00:51:39.195Z,16.40
2023-05-23T00:53:40.851Z,16.40
2023-05-23T00:55:42.981Z,16.40
2023-05-23T00:57:45.540Z,16.40
2023-05-23T00:59:47.278Z,16.40
2023-05-23T01:01:50.433Z,16.40
2023-05-23T01:03:52.304Z,16.40
2023-05-23T01:05:55.499Z,16.30
2023-05-23T01:07:57.170Z,16.40
2023-05-23T01:09:58.864Z,16.30
2023-05-23T01:12:00.931Z,16.20
2023-05-23T01:14:10.012Z,16.30
2023-05-23T01:16:19.823Z,16.30
2023-05-23T01:18:26.312Z,16.30
2023-05-23T01:20:30.127Z,16.30
2023-05-23T01:22:31.739Z,16.20
2023-05-23T01:24:39.545Z,16.20
2023-05-23T01:26:48.265Z,16.20
2023-05-23T01:28:52.051Z,16.10
2023-05-23T01:30:57.325Z,16.20
2023-05-23T01:32:59.364Z,16.10
2023-05-23T01:35:01.350Z,16.20
2023-05-23T01:37:07.718Z,16.10
2023-05-23T01:39:10.479Z,16.20
2023-05-23T01:41:12.115Z,16.20
2023-05-23T01:43:13.720Z,16.10
2023-05-23T01:45:16.291Z,16.10
2023-05-23T01:47:18.014Z,16.00
2023-05-23T01:49:21.975Z,15.90
2023-05-23T01:51:23.930Z,16.10
2023-05-23T01:53:26.074Z,16.10
2023-05-23T01:55:28.057Z,16.10
2023-05-23T01:57:30.705Z,16.00
2023-05-23T01:59:32.370Z,15.90
2023-05-23T02:01:34.176Z,15.80
2023-05-23T02:03:36.213Z,15.90
2023-05-23T02:05:37.930Z,15.80
2023-05-23T02:07:39.707Z,15.80
2023-05-23T02:09:41.314Z,15.80
2023-05-23T02:11:42.970Z,15.70
2023-05-23T02:13:44.537Z,15.70
2023-05-23T02:15:46.196Z,15.70
2023-05-23T02:17:48.341Z,15.60
2023-05-23T02:19:50.696Z,15.50
2023-05-23T02:21:52.315Z,15.60
2023-05-23T02:23:53.969Z,15.60
2023-05-23T02:25:56.088Z,15.50
2023-05-23T02:27:57.748Z,15.50
2023-05-23T02:29:59.385Z,15.60
2023-05-23T02:32:01.064Z,15.40
2023-05-23T02:34:02.675Z,15.50
2023-05-23T02:36:05.115Z,15.50
2023-05-23T02:38:06.766Z,15.60
2023-05-23T02:40:08.649Z,15.60
2023-05-23T02:42:10.469Z,15.40
2023-05-23T02:44:12.070Z,15.40
2023-05-23T02:46:13.832Z,15.30
2023-05-23T02:48:15.996Z,15.40
2023-05-23T02:50:17.805Z,15.50
2023-05-23T02:52:19.754Z,15.50
2023-05-23T02:54:21.633Z,15.50
2023-05-23T02:56:23.468Z,15.30
2023-05-23T02:58:25.409Z,15.30
2023-05-23T03:00:27.504Z,15.50
2023-05-23T03:02:29.398Z,15.60
2023-05-23T03:04:31.194Z,15.60
2023-05-23T03:06:34.133Z,15.70
2023-05-23T03:08:36.150Z,15.70
2023-05-23T03:10:37.749Z,15.70
2023-05-23T03:12:39.387Z,15.80
2023-05-23T03:14:41.308Z,15.80
2023-05-23T03:16:43.081Z,15.90
2023-05-23T03:18:44.673Z,15.90
2023-05-23T03:20:46.349Z,15.90
2023-05-23T03:24:50.462Z,16.00
2023-05-23T03:26:52.175Z,16.00
2023-05-23T03:28:53.763Z,16.00
2023-05-23T03:30:55.417Z,16.00
2023-05-23T03:32:58.384Z,16.00
2023-05-23T03:35:00.006Z,16.10
2023-05-23T03:37:01.570Z,16.10
2023-05-23T03:39:03.215Z,16.10
2023-05-23T03:41:04.846Z,16.10
2023-05-23T03:43:06.701Z,16.10
2023-05-23T03:45:08.338Z,16.10
2023-05-23T03:47:10.057Z,16.20
2023-05-23T03:49:11.705Z,16.20
2023-05-23T03:51:13.514Z,16.20
2023-05-23T03:53:15.111Z,16.20
2023-05-23T03:55:16.738Z,16.30
2023-05-23T03:57:18.396Z,16.30
2023-05-23T03:59:19.967Z,16.40
2023-05-23T04:01:21.620Z,16.40
2023-05-23T04:03:23.507Z,16.40
2023-05-23T04:05:25.646Z,16.30
2023-05-23T04:07:27.236Z,16.40
2023-05-23T04:09:28.845Z,16.40
2023-05-23T04:11:30.433Z,16.40
2023-05-23T04:13:33.195Z,16.40
2023-05-23T04:15:35.306Z,16.50
2023-05-23T04:17:38.825Z,16.60
2023-05-23T04:19:40.649Z,16.70
2023-05-23T04:21:42.270Z,16.70
2023-05-23T04:23:43.882Z,16.70
2023-05-23T04:25:45.487Z,16.80
2023-05-23T04:27:47.384Z,16.90
2023-05-23T04:29:49.098Z,16.90
2023-05-23T04:31:51.100Z,16.90
2023-05-23T04:33:52.928Z,16.90
2023-05-23T04:35:54.605Z,17.00
2023-05-23T04:37:56.733Z,17.00
2023-05-23T04:39:59.711Z,17.10
2023-05-23T04:42:01.557Z,17.20
2023-05-23T04:44:03.241Z,17.20
2023-05-23T04:46:04.908Z,17.30
2023-05-23T04:48:06.623Z,17.30
2023-05-23T04:50:08.711Z,17.30
2023-05-23T04:52:10.472Z,17.30
2023-05-23T04:54:12.085Z,17.30
2023-05-23T04:56:14.241Z,17.40
2023-05-23T04:58:15.914Z,17.30
2023-05-23T05:00:17.709Z,17.40
2023-05-23T05:02:19.424Z,17.40
2023-05-23T05:04:22.109Z,17.40
2023-05-23T05:06:23.864Z,17.40
2023-05-23T05:08:26.103Z,17.40
2023-05-23T05:10:27.759Z,17.40
2023-05-23T05:12:29.382Z,17.50
2023-05-23T05:14:31.007Z,17.40
2023-05-23T05:16:32.930Z,17.50
2023-05-23T05:18:35.612Z,17.50
2023-05-23T05:20:37.190Z,17.50
2023-05-23T05:22:47.337Z,17.50
2023-05-23T05:24:49.099Z,17.60
2023-05-23T05:26:57.126Z,17.60
2023-05-23T05:28:58.836Z,17.70
2023-05-23T05:31:05.058Z,17.80
2023-05-23T05:33:08.283Z,17.90
2023-05-23T05:35:10.263Z,17.90
2023-05-23T05:37:14.468Z,18.00
2023-05-23T05:39:16.297Z,17.90
2023-05-23T05:41:18.260Z,17.90
2023-05-23T05:43:19.978Z,17.90
2023-05-23T05:45:21.627Z,17.80
2023-05-23T05:47:23.308Z,17.80
2023-05-23T05:49:25.137Z,17.80
2023-05-23T05:51:26.795Z,17.80
2023-05-23T05:53:28.829Z,18.00
2023-05-23T05:55:30.542Z,18.00
2023-05-23T05:57:32.380Z,18.00
2023-05-23T05:59:43.053Z,17.90
2023-05-23T06:01:47.461Z,17.90
2023-05-23T06:03:59.423Z,18.10
2023-05-23T06:06:08.459Z,18.20
2023-05-23T06:08:17.697Z,18.20
2023-05-23T06:10:32.179Z,18.30
2023-05-23T06:12:37.156Z,18.30
2023-05-23T06:14:38.881Z,18.20
2023-05-23T06:16:41.575Z,18.30
2023-05-23T06:18:43.716Z,18.10
2023-05-23T06:20:45.498Z,18.00
2023-05-23T06:22:47.142Z,18.00
2023-05-23T06:24:51.358Z,18.10
2023-05-23T06:26:53.593Z,18.20
2023-05-23T06:28:55.530Z,18.30
2023-05-23T06:30:57.281Z,18.40
2023-05-23T06:32:59.036Z,18.20
2023-05-23T06:35:05.514Z,18.40
2023-05-23T06:37:08.301Z,18.10
2023-05-23T06:39:10.281Z,18.20
2023-05-23T06:41:12.398Z,18.20
2023-05-23T06:43:20.211Z,18.40
2023-05-23T06:45:21.961Z,18.30
2023-05-23T06:47:25.871Z,18.40
2023-05-23T06:49:27.625Z,18.30
2023-05-23T06:51:29.433Z,18.40
2023-05-23T06:53:31.245Z,18.40
2023-05-23T06:55:34.005Z,18.40
2023-05-23T06:57:35.768Z,18.40
2023-05-23T06:59:37.422Z,18.30
2023-05-23T07:01:39.621Z,18.20
2023-05-23T07:03:50.725Z,18.20
2023-05-23T07:05:52.711Z,18.10
2023-05-23T07:07:55.008Z,18.10
2023-05-23T07:09:56.711Z,18.10
2023-05-23T07:11:58.430Z,18.00
2023-05-23T07:14:00.150Z,18.10
2023-05-23T07:16:12.031Z,18.20
2023-05-23T07:18:16.817Z,18.20
2023-05-23T07:20:18.578Z,18.30
2023-05-23T07:22:20.245Z,18.20
2023-05-23T07:24:23.836Z,18.10
2023-05-23T07:26:41.732Z,18.10
2023-05-23T07:28:43.595Z,18.00
2023-05-23T07:30:45.645Z,17.90
2023-05-23T07:32:49.874Z,17.90
2023-05-23T07:38:07.798Z,17.90
2023-05-23T07:40:10.578Z,17.90
2023-05-23T07:42:15.420Z,17.70
2023-05-23T07:44:18.062Z,17.80
2023-05-23T07:46:19.927Z,17.60
2023-05-23T07:48:21.762Z,17.60
2023-05-23T07:50:37.241Z,17.60
2023-05-23T07:52:39.180Z,17.70
2023-05-23T07:54:40.862Z,17.70
2023-05-23T07:56:43.533Z,17.70
2023-05-23T07:58:45.288Z,17.80
2023-05-23T08:00:53.374Z,17.70
2023-05-23T08:26:37.539Z,18.60
2023-05-23T08:28:39.226Z,18.80
2023-05-23T08:30:40.970Z,18.80
2023-05-23T08:32:42.859Z,18.30
2023-05-23T08:34:44.500Z,18.10
2023-05-23T08:36:46.339Z,18.00
2023-05-23T09:01:13.600Z,18.00
2023-05-23T09:03:15.310Z,17.80
